Time;durP1;ratioP1;P1;durP2;ratioP2;P2;SDS_P1;SDS_P2;PMS_P1;PMS_P2;Temp;Humidity;BMP_temperature;BMP_pressure;BME280_temperature;BME280_humidity;BME280_pressure;Samples;Min_cycle;Max_cycle;Signal;HPM_P1;HPM_P2
2022/03/17 00:02:25;;;;;;;12.83;9.10;;;;;;;11.47;60.63;95234.81;5051706;28;20193;-78
2022/03/17 00:04:52;;;;;;;10.30;8.90;;;;;;;11.44;60.47;95238.47;5050850;28;20199;-78
2022/03/17 00:07:19;;;;;;;8.80;7.90;;;;;;;11.45;60.70;95234.94;5051386;28;20195;-78
2022/03/17 00:09:46;;;;;;;12.87;8.53;;;;;;;11.42;60.61;95227.50;5050228;28;20190;-78
2022/03/17 00:12:15;;;;;;;13.97;9.20;;;;;;;11.47;60.75;95235.63;5048954;28;20222;-77
2022/03/17 00:14:42;;;;;;;11.40;8.97;;;;;;;11.48;60.63;95238.97;5051260;28;20661;-83
2022/03/17 00:17:09;;;;;;;12.07;8.57;;;;;;;11.48;60.71;95237.22;5051245;28;20685;-82
2022/03/17 00:19:37;;;;;;;11.00;9.57;;;;;;;11.40;60.84;95231.13;5051149;28;20301;-81
2022/03/17 00:22:06;;;;;;;12.17;9.53;;;;;;;11.43;60.83;95231.69;5050878;28;20241;-76
2022/03/17 00:24:33;;;;;;;12.23;9.73;;;;;;;11.50;60.67;95234.56;5050725;28;20191;-77
2022/03/17 00:27:00;;;;;;;10.73;9.17;;;;;;;11.49;60.73;95225.25;5050783;28;20195;-76
2022/03/17 00:29:28;;;;;;;13.40;8.97;;;;;;;11.48;60.84;95228.75;5051115;28;20195;-82
2022/03/17 00:31:55;;;;;;;12.53;9.37;;;;;;;11.50;60.81;95229.44;5050955;28;20187;-76
2022/03/17 00:34:22;;;;;;;15.87;10.80;;;;;;;11.51;60.72;95241.28;5030984;28;20740;-77
2022/03/17 00:36:49;;;;;;;12.20;9.37;;;;;;;11.47;60.71;95232.25;5030291;28;20566;-77
2022/03/17 00:39:15;;;;;;;14.37;10.37;;;;;;;11.46;60.72;95223.75;5030555;28;20219;-76
2022/03/17 00:41:44;;;;;;;11.37;9.93;;;;;;;11.51;60.80;95234.41;5031289;28;20184;-82
2022/03/17 00:44:11;;;;;;;14.27;9.97;;;;;;;11.52;60.73;95240.34;5052555;28;20221;-81
2022/03/17 00:46:39;;;;;;;12.90;9.87;;;;;;;11.50;60.91;95237.13;5051483;28;20642;-76
2022/03/17 00:49:06;;;;;;;13.80;9.57;;;;;;;11.44;60.76;95232.50;5050684;28;20195;-80
2022/03/17 00:51:33;;;;;;;12.40;9.70;;;;;;;11.50;60.91;95245.59;5050657;28;20206;-79
2022/03/17 00:54:00;;;;;;;12.80;9.50;;;;;;;11.51;60.88;95246.41;5049554;28;20183;-81
2022/03/17 00:56:27;;;;;;;13.73;9.77;;;;;;;11.49;60.91;95248.31;5050285;28;20184;-86
2022/03/17 00:58:54;;;;;;;11.50;9.93;;;;;;;11.51;61.13;95262.59;5048811;28;20222;-78
2022/03/17 01:01:21;;;;;;;11.93;9.80;;;;;;;11.52;61.05;95268.53;5050668;28;20615;-78
2022/03/17 01:03:49;;;;;;;13.37;9.73;;;;;;;11.52;60.95;95276.22;5050128;28;20730;-80
2022/03/17 01:06:16;;;;;;;11.83;9.67;;;;;;;11.47;60.96;95268.09;5050676;28;20203;-81
2022/03/17 01:08:43;;;;;;;14.43;9.73;;;;;;;11.46;61.05;95271.63;5050204;28;20194;-81
2022/03/17 01:11:09;;;;;;;14.03;9.93;;;;;;;11.43;61.34;95282.91;5049631;28;20213;-77
2022/03/17 01:13:36;;;;;;;12.43;9.33;;;;;;;11.43;61.45;95285.47;5040017;28;20571;-78
2022/03/17 01:16:04;;;;;;;15.10;9.50;;;;;;;11.41;61.62;95282.25;5049700;28;20581;-76
2022/03/17 01:18:30;;;;;;;11.20;8.97;;;;;;;11.40;61.44;95284.91;5051070;28;20227;-79
2022/03/17 01:20:59;;;;;;;12.40;8.33;;;;;;;11.35;61.29;95285.28;5044012;28;20203;-79
2022/03/17 01:23:26;;;;;;;11.17;8.40;;;;;;;11.34;61.21;95286.25;5039923;28;20179;-80
2022/03/17 01:25:53;;;;;;;11.57;7.93;;;;;;;11.32;61.30;95288.13;5030054;28;20685;-77
2022/03/17 01:28:20;;;;;;;9.17;7.27;;;;;;;11.23;61.16;95281.22;5030570;28;20183;-81
2022/03/17 01:30:47;;;;;;;8.13;6.97;;;;;;;11.24;61.14;95280.28;5029739;28;20208;-81
2022/03/17 01:33:13;;;;;;;8.27;6.93;;;;;;;11.22;60.87;95290.63;5036373;28;20184;-80
2022/03/17 01:35:40;;;;;;;7.90;6.10;;;;;;;11.17;61.06;95286.81;5049896;28;20261;-79
2022/03/17 01:38:09;;;;;;;6.60;5.87;;;;;;;11.14;60.71;95293.03;5049597;28;20730;-81
2022/03/17 01:40:35;;;;;;;9.00;6.07;;;;;;;11.16;60.78;95303.94;5049569;28;20195;-77
2022/03/17 01:43:02;;;;;;;7.20;5.67;;;;;;;11.15;60.59;95311.75;5049725;28;20205;-80
2022/03/17 01:45:30;;;;;;;8.23;5.77;;;;;;;11.10;60.75;95306.22;5049448;28;20191;-81
2022/03/17 01:47:56;;;;;;;8.27;5.60;;;;;;;11.12;60.32;95309.44;5049724;28;20191;-79
2022/03/17 01:50:24;;;;;;;6.40;5.70;;;;;;;11.13;60.40;95308.50;5049340;28;20198;-79
2022/03/17 01:52:51;;;;;;;7.50;5.20;;;;;;;11.10;60.46;95316.44;5044495;28;20184;-81
2022/03/17 01:55:20;;;;;;;5.83;5.23;;;;;;;11.06;60.37;95305.66;5030448;28;20186;-78
2022/03/17 01:57:47;;;;;;;7.27;5.33;;;;;;;11.00;60.45;95301.81;5029648;28;20200;-78
2022/03/17 02:00:17;;;;;;;6.80;5.60;;;;;;;11.05;60.25;95309.94;5029634;28;20223;-79
2022/03/17 02:02:45;;;;;;;6.50;5.47;;;;;;;11.00;60.29;95298.44;5029581;28;20192;-79
2022/03/17 02:05:12;;;;;;;7.17;5.40;;;;;;;11.05;60.37;95304.00;5031056;28;20187;-78
2022/03/17 02:07:40;;;;;;;5.87;5.30;;;;;;;11.01;60.48;95290.66;5031636;28;20203;-79
2022/03/17 02:10:08;;;;;;;6.00;5.00;;;;;;;11.03;60.43;95293.91;5033717;28;20191;-81
2022/03/17 02:15:20;;;;;;;6.10;5.37;;;;;;;10.92;60.82;95288.03;5053609;28;20182;-77
2022/03/17 02:17:48;;;;;;;7.13;5.97;;;;;;;10.94;61.04;95311.75;5054265;28;20224;-79
2022/03/17 02:20:16;;;;;;;6.17;5.57;;;;;;;10.87;61.27;95308.06;5055459;28;20233;-81
2022/03/17 02:22:44;;;;;;;6.80;6.10;;;;;;;10.90;61.25;95318.88;5047910;28;20192;-80
2022/03/17 02:27:59;;;;;;;7.83;5.67;;;;;;;10.89;61.31;95324.13;5035389;28;20198;-86
2022/03/17 02:30:26;;;;;;;9.03;5.83;;;;;;;10.82;61.44;95316.09;5034307;28;20199;-81
2022/03/17 02:33:00;;;;;;;6.73;5.97;;;;;;;10.86;61.48;95316.69;5034129;28;20196;-80
2022/03/17 02:35:27;;;;;;;6.37;5.77;;;;;;;10.84;61.68;95319.38;5033282;28;20212;-78
2022/03/17 02:37:55;;;;;;;7.13;6.00;;;;;;;10.75;61.69;95315.81;5032627;28;20219;-79
2022/03/17 02:40:25;;;;;;;6.33;5.73;;;;;;;10.82;61.67;95333.22;5036259;28;20257;-81
2022/03/17 02:42:52;;;;;;;6.90;5.73;;;;;;;10.79;61.97;95334.25;5052827;28;20194;-79
2022/03/17 02:45:19;;;;;;;8.60;6.53;;;;;;;10.77;61.90;95334.38;5052932;28;20196;-78
2022/03/17 02:47:46;;;;;;;6.17;5.13;;;;;;;10.78;61.90;95333.44;5052601;28;20202;-79
2022/03/17 02:50:13;;;;;;;6.00;5.03;;;;;;;10.72;61.91;95328.03;5052646;28;20191;-80
2022/03/17 02:52:41;;;;;;;7.63;5.93;;;;;;;10.73;61.83;95339.88;5052285;28;20693;-81
2022/03/17 02:55:10;;;;;;;5.77;5.20;;;;;;;10.65;61.99;95339.66;5054084;28;20198;-80
2022/03/17 02:57:39;;;;;;;5.87;5.30;;;;;;;10.70;61.91;95342.66;5039873;28;20255;-77
2022/03/17 03:00:07;;;;;;;8.17;5.23;;;;;;;10.64;61.75;95338.06;5030565;28;20631;-75
2022/03/17 03:02:35;;;;;;;5.17;4.63;;;;;;;10.60;61.89;95340.03;5039672;28;20190;-77
2022/03/17 03:05:02;;;;;;;6.13;5.10;;;;;;;10.61;61.85;95348.53;5050054;28;20195;-73
2022/03/17 03:07:28;;;;;;;6.27;5.07;;;;;;;10.58;61.91;95356.44;5049558;28;20194;-77
2022/03/17 03:09:56;;;;;;;5.93;4.80;;;;;;;10.55;62.03;95344.72;5049989;28;20187;-77
2022/03/17 03:12:23;;;;;;;6.80;4.97;;;;;;;10.56;61.76;95354.00;5050048;28;20191;-77
2022/03/17 03:14:51;;;;;;;5.50;5.00;;;;;;;10.55;61.77;95347.28;5049836;28;20658;-78
2022/03/17 03:17:18;;;;;;;5.30;4.63;;;;;;;10.54;61.77;95354.13;5049492;28;20639;-78
2022/03/17 03:19:45;;;;;;;5.13;4.63;;;;;;;10.52;61.79;95355.19;5048759;28;20215;-76
2022/03/17 03:22:12;;;;;;;6.60;4.80;;;;;;;10.51;61.65;95361.22;5031817;28;20200;-77
2022/03/17 03:24:38;;;;;;;5.00;4.50;;;;;;;10.42;61.95;95342.31;5029762;28;20683;-76
2022/03/17 03:27:06;;;;;;;4.73;4.30;;;;;;;10.46;61.70;95350.56;5029684;28;20203;-77
2022/03/17 03:29:33;;;;;;;6.33;4.40;;;;;;;10.48;61.68;95358.91;5029710;28;20220;-77
2022/03/17 03:32:04;;;;;;;5.80;4.50;;;;;;;10.48;61.56;95357.16;5029677;28;20203;-81
2022/03/17 03:34:32;;;;;;;5.57;4.00;;;;;;;10.46;61.38;95358.22;5029047;28;20230;-74
2022/03/17 03:39:44;;;;;;;6.03;4.80;;;;;;;10.38;61.15;95358.00;5029108;28;20222;-78
2022/03/17 03:42:11;;;;;;;5.13;4.50;;;;;;;10.35;61.24;95363.34;5048431;28;20187;-76
2022/03/17 03:44:39;;;;;;;4.97;4.47;;;;;;;10.36;61.14;95370.91;5048930;28;20199;-78
2022/03/17 03:47:08;;;;;;;4.77;4.33;;;;;;;10.32;60.97;95369.53;5048997;28;20840;-78
2022/03/17 03:49:35;;;;;;;5.83;5.03;;;;;;;10.31;60.89;95367.88;5048684;28;20194;-79
2022/03/17 03:52:02;;;;;;;5.07;4.57;;;;;;;10.26;60.67;95367.44;5048639;28;20646;-76
2022/03/17 03:54:29;;;;;;;5.93;4.47;;;;;;;10.26;60.58;95375.91;5033975;28;20192;-77
2022/03/17 03:56:57;;;;;;;5.80;5.20;;;;;;;10.19;60.53;95376.47;5029813;28;20659;-77
2022/03/17 03:59:28;;;;;;;5.77;5.07;;;;;;;10.21;60.56;95393.31;5028703;28;20211;-76
2022/03/17 04:01:57;;;;;;;6.37;5.10;;;;;;;10.21;60.42;95392.53;5048294;28;20264;-76
2022/03/17 04:04:25;;;;;;;6.17;5.30;;;;;;;10.18;60.45;95395.31;5048455;28;20594;-77
2022/03/17 04:06:54;;;;;;;7.07;6.00;;;;;;;10.14;60.49;95399.03;5048920;28;20582;-76
2022/03/17 04:09:23;;;;;;;6.57;5.70;;;;;;;10.10;60.62;95398.44;5029653;28;20228;-76
2022/03/17 04:11:51;;;;;;;6.73;6.00;;;;;;;10.06;60.68;95402.19;5050872;28;20580;-75
2022/03/17 04:14:18;;;;;;;6.77;5.87;;;;;;;10.02;60.63;95405.91;5050988;28;20191;-78
2022/03/17 04:16:45;;;;;;;6.60;5.50;;;;;;;10.02;60.66;95411.81;5042914;28;20214;-78
2022/03/17 04:19:12;;;;;;;8.00;6.90;;;;;;;9.99;60.50;95412.03;5037428;28;20199;-78
2022/03/17 04:21:40;;;;;;;7.83;6.43;;;;;;;9.98;60.74;95419.84;5029913;28;20188;-77
2022/03/17 04:24:07;;;;;;;9.00;6.57;;;;;;;9.95;60.65;95425.19;5034742;28;20191;-77
2022/03/17 04:26:34;;;;;;;7.73;6.07;;;;;;;9.91;60.78;95434.81;5039732;28;20175;-79
2022/03/17 04:29:01;;;;;;;7.57;6.70;;;;;;;9.86;60.73;95438.63;5041344;28;20188;-76
2022/03/17 04:31:28;;;;;;;9.33;7.80;;;;;;;9.86;60.75;95442.00;5030899;28;20729;-77
2022/03/17 04:33:56;;;;;;;7.90;6.83;;;;;;;9.81;60.85;95439.00;5032753;28;20296;-76
2022/03/17 04:36:23;;;;;;;10.30;7.87;;;;;;;9.78;60.88;95445.13;5031406;28;20222;-78
2022/03/17 04:38:52;;;;;;;7.73;6.67;;;;;;;9.78;60.80;95451.97;5036027;28;20219;-77
2022/03/17 04:41:19;;;;;;;8.77;6.70;;;;;;;9.77;61.04;95450.34;5041298;28;20208;-76
2022/03/17 04:43:46;;;;;;;7.13;6.03;;;;;;;9.77;60.83;95455.47;5041705;28;20206;-78
2022/03/17 04:46:13;;;;;;;7.77;6.97;;;;;;;9.69;61.01;95447.56;5042662;28;20184;-76
2022/03/17 04:48:40;;;;;;;8.70;7.47;;;;;;;9.69;61.09;95450.91;5042755;28;20179;-77
2022/03/17 04:51:07;;;;;;;8.30;7.10;;;;;;;9.69;61.08;95452.66;5033776;28;20190;-74
2022/03/17 04:53:34;;;;;;;7.73;6.93;;;;;;;9.66;61.32;95455.44;5041957;28;20194;-74
2022/03/17 04:56:05;;;;;;;8.57;7.10;;;;;;;9.65;61.33;95458.91;5030073;28;20187;-75
2022/03/17 04:58:33;;;;;;;8.50;6.90;;;;;;;9.63;61.40;95464.16;5034307;28;20196;-74
2022/03/17 05:01:01;;;;;;;7.77;6.97;;;;;;;9.57;61.41;95462.03;5041500;28;20601;-74
2022/03/17 05:03:29;;;;;;;7.77;6.70;;;;;;;9.59;61.41;95469.59;5034468;28;20666;-78
2022/03/17 05:05:56;;;;;;;8.70;7.10;;;;;;;9.55;61.61;95466.44;5033160;28;20570;-75
2022/03/17 05:08:23;;;;;;;6.80;6.10;;;;;;;9.54;61.61;95473.31;5028931;28;20183;-74
2022/03/17 05:10:52;;;;;;;9.40;7.40;;;;;;;9.54;61.69;95470.75;5038445;28;20187;-77
2022/03/17 05:13:22;;;;;;;9.00;6.83;;;;;;;9.52;61.44;95479.44;5039396;28;20191;-77
2022/03/17 05:15:49;;;;;;;7.80;6.90;;;;;;;9.53;61.60;95491.28;5037685;28;20555;-75
2022/03/17 05:18:17;;;;;;;7.03;6.33;;;;;;;9.50;61.66;95491.50;5029381;28;20191;-77
2022/03/17 05:20:43;;;;;;;7.50;6.80;;;;;;;9.49;61.58;95485.56;5037954;28;20203;-76
2022/03/17 05:23:12;;;;;;;7.73;6.20;;;;;;;9.50;61.50;95499.19;5049623;28;20191;-78
2022/03/17 05:25:40;;;;;;;7.57;6.50;;;;;;;9.50;61.53;95494.88;5046235;28;20187;-77
2022/03/17 05:28:08;;;;;;;6.63;5.93;;;;;;;9.54;61.27;95495.44;5036629;28;20195;-75
2022/03/17 05:30:37;;;;;;;6.70;6.00;;;;;;;9.56;61.39;95503.81;5049978;28;20187;-76
2022/03/17 05:33:05;;;;;;;10.53;6.30;;;;;;;9.54;61.33;95503.94;5049341;28;20241;-77
2022/03/17 05:35:32;;;;;;;6.83;5.50;;;;;;;9.53;61.22;95514.25;5032389;28;20188;-76
2022/03/17 05:38:00;;;;;;;7.23;6.17;;;;;;;9.52;61.22;95508.34;5028970;28;20227;-74
2022/03/17 05:40:28;;;;;;;6.50;5.90;;;;;;;9.44;61.12;95497.03;5029629;28;20215;-78
2022/03/17 05:42:57;;;;;;;7.20;6.03;;;;;;;9.50;61.16;95511.94;5031898;28;20187;-76
2022/03/17 05:45:26;;;;;;;6.10;5.50;;;;;;;9.47;61.26;95523.19;5045408;28;20200;-75
2022/03/17 05:47:57;;;;;;;6.63;5.23;;;;;;;9.42;61.11;95520.16;5053651;28;20222;-75
2022/03/17 05:50:25;;;;;;;7.10;6.40;;;;;;;9.46;61.12;95534.31;5052161;28;20183;-76
2022/03/17 05:52:53;;;;;;;5.80;5.30;;;;;;;9.37;61.09;95523.94;5053523;28;20202;-77
2022/03/17 05:55:22;;;;;;;5.87;5.17;;;;;;;9.49;61.07;95546.84;5053637;28;20187;-79
2022/03/17 05:57:50;;;;;;;6.53;5.50;;;;;;;9.48;60.99;95549.50;5053737;28;20202;-77
2022/03/17 06:00:19;;;;;;;5.70;5.13;;;;;;;9.45;60.99;95542.06;5052520;28;20680;-78
2022/03/17 06:02:46;;;;;;;5.73;5.00;;;;;;;9.46;60.99;95541.97;5053828;28;20205;-77
2022/03/17 06:05:15;;;;;;;6.93;5.23;;;;;;;9.49;61.05;95554.50;5043187;28;20195;-78
2022/03/17 06:07:44;;;;;;;5.67;4.77;;;;;;;9.37;61.04;95532.44;5034350;28;20192;-80
2022/03/17 06:10:12;;;;;;;5.70;4.60;;;;;;;9.46;61.09;95554.75;5033273;28;20202;-77
2022/03/17 06:12:40;;;;;;;5.67;4.90;;;;;;;9.46;61.06;95547.09;5033400;28;20191;-76
2022/03/17 06:15:08;;;;;;;5.07;4.50;;;;;;;9.49;60.97;95551.94;5031586;28;20223;-77
2022/03/17 06:17:40;;;;;;;6.80;5.13;;;;;;;9.49;60.97;95557.06;5032429;28;20191;-78
2022/03/17 06:20:09;;;;;;;4.97;4.47;;;;;;;9.48;61.35;95557.19;5031175;28;20226;-77
2022/03/17 06:22:39;;;;;;;6.07;5.00;;;;;;;9.48;61.00;95559.72;5031132;28;20228;-77
2022/03/17 06:25:07;;;;;;;7.53;4.93;;;;;;;9.44;61.19;95556.56;5030670;28;20191;-77
2022/03/17 06:27:35;;;;;;;5.70;4.70;;;;;;;9.44;61.10;95564.22;5032769;28;20184;-82
2022/03/17 06:30:03;;;;;;;5.50;4.27;;;;;;;9.30;61.30;95546.53;5030232;28;20191;-76
2022/03/17 06:32:30;;;;;;;5.43;4.93;;;;;;;9.45;61.30;95575.25;5030917;28;20188;-77
2022/03/17 06:34:57;;;;;;;7.10;5.43;;;;;;;9.46;61.18;95576.91;5030271;28;20187;-75
2022/03/17 06:37:24;;;;;;;5.93;4.90;;;;;;;9.50;61.12;95580.88;5035888;28;20584;-76
2022/03/17 06:39:54;;;;;;;5.37;4.83;;;;;;;9.50;61.33;95583.44;5052929;28;20187;-78
2022/03/17 06:42:21;;;;;;;5.53;4.40;;;;;;;9.52;61.04;95591.78;5050642;28;20658;-75
2022/03/17 06:44:48;;;;;;;5.03;4.53;;;;;;;9.54;61.00;95585.66;5052807;28;20195;-74
2022/03/17 06:47:14;;;;;;;7.07;5.00;;;;;;;9.54;61.01;95592.47;5048834;28;20206;-78
2022/03/17 06:49:41;;;;;;;5.67;4.50;;;;;;;9.52;61.25;95596.88;5035953;28;20196;-76
2022/03/17 06:52:08;;;;;;;4.87;4.37;;;;;;;9.36;61.19;95576.72;5029726;28;20199;-79
2022/03/17 06:54:35;;;;;;;5.97;4.93;;;;;;;9.49;61.20;95599.66;5029214;28;20198;-76
2022/03/17 06:57:04;;;;;;;5.73;5.20;;;;;;;9.50;61.15;95601.31;5033536;28;20198;-75
2022/03/17 06:59:30;;;;;;;6.67;4.73;;;;;;;9.54;60.99;95607.78;5048735;28;20190;-74
2022/03/17 07:01:57;;;;;;;6.13;4.63;;;;;;;9.58;61.09;95605.84;5030847;28;20223;-77
2022/03/17 07:04:24;;;;;;;5.57;4.50;;;;;;;9.56;61.35;95603.41;5031445;28;20562;-77
2022/03/17 07:06:51;;;;;;;4.83;4.27;;;;;;;9.54;61.08;95612.91;5030011;28;20196;-80
2022/03/17 07:09:17;;;;;;;5.07;3.50;;;;;;;9.64;79.55;95619.00;5029957;28;20759;-75
2022/03/17 07:11:44;;;;;;;6.57;4.13;;;;;;;10.47;100.00;95613.00;5031034;28;20187;-75
2022/03/17 07:14:12;;;;;;;7.93;3.43;;;;;;;11.41;100.00;95616.94;5045720;28;20206;-74
2022/03/17 07:16:39;;;;;;;4.63;3.53;;;;;;;12.23;100.00;95620.59;5048383;28;20728;-74
2022/03/17 07:19:07;;;;;;;3.83;3.53;;;;;;;12.60;96.73;95619.31;5048660;28;20664;-73
2022/03/17 07:21:34;;;;;;;5.07;3.87;;;;;;;12.60;83.33;95624.47;5042948;28;20226;-74
2022/03/17 07:24:01;;;;;;;4.00;3.60;;;;;;;12.49;73.79;95630.50;5048271;28;20198;-77
2022/03/17 07:26:31;;;;;;;8.20;4.50;;;;;;;12.28;68.74;95627.94;5046299;28;20190;-74
2022/03/17 07:28:58;;;;;;;4.57;4.13;;;;;;;12.08;66.18;95633.84;5048413;28;20199;-74
2022/03/17 07:31:29;;;;;;;5.20;4.67;;;;;;;11.76;65.28;95620.09;5048456;28;20187;-74
2022/03/17 07:33:55;;;;;;;6.07;4.63;;;;;;;11.66;65.08;95629.44;5048170;28;20195;-74
2022/03/17 07:36:23;;;;;;;4.53;4.13;;;;;;;11.58;65.35;95642.03;5047943;28;20226;-74
2022/03/17 07:38:50;;;;;;;7.37;5.50;;;;;;;11.45;65.15;95639.63;5047183;28;20670;-74
2022/03/17 07:41:17;;;;;;;4.73;4.23;;;;;;;11.35;64.30;95648.13;5048455;28;20331;-72
2022/03/17 07:43:44;;;;;;;5.17;4.37;;;;;;;11.23;63.55;95643.03;5048259;28;20360;-73
2022/03/17 07:46:11;;;;;;;5.83;5.17;;;;;;;11.16;63.30;95651.31;5048130;28;20899;-75
2022/03/17 07:48:41;;;;;;;7.17;5.47;;;;;;;11.10;62.91;95649.22;5044761;28;20191;-77
2022/03/17 07:51:08;;;;;;;7.37;5.43;;;;;;;11.09;62.65;95652.69;5048083;28;20290;-74
2022/03/17 07:53:36;;;;;;;6.07;5.47;;;;;;;11.03;62.58;95647.09;5047782;28;20195;-78
2022/03/17 07:56:04;;;;;;;6.43;5.83;;;;;;;10.98;62.30;95646.66;5048267;28;20195;-74
2022/03/17 07:58:33;;;;;;;6.37;5.73;;;;;;;11.01;61.66;95651.56;5045380;28;20179;-84
2022/03/17 08:01:01;;;;;;;6.87;6.17;;;;;;;11.02;61.67;95655.72;5047687;28;20215;-76
2022/03/17 08:03:28;;;;;;;7.87;6.47;;;;;;;11.02;61.51;95655.72;5046448;28;20569;-75
2022/03/17 08:05:57;;;;;;;7.20;6.30;;;;;;;11.01;61.42;95651.56;5044973;28;20183;-77
2022/03/17 08:08:24;;;;;;;8.53;5.97;;;;;;;11.01;61.32;95643.88;5045667;28;20222;-75
2022/03/17 08:10:51;;;;;;;8.53;6.77;;;;;;;11.01;61.30;95658.38;5043819;28;20195;-77
2022/03/17 08:13:18;;;;;;;7.13;5.73;;;;;;;10.98;61.01;95648.41;5047643;28;20191;-75
2022/03/17 08:15:45;;;;;;;8.43;6.17;;;;;;;10.99;61.03;95647.47;5045948;28;20191;-76
2022/03/17 08:18:12;;;;;;;9.07;6.37;;;;;;;10.98;60.73;95648.41;5047242;28;20191;-77
2022/03/17 08:20:39;;;;;;;6.80;5.90;;;;;;;10.97;60.81;95642.47;5045725;28;20265;-79
2022/03/17 08:23:09;;;;;;;7.90;5.97;;;;;;;11.02;60.77;95654.91;5044653;28;20605;-78
2022/03/17 08:25:36;;;;;;;8.30;5.70;;;;;;;11.04;60.74;95658.97;5047174;28;20720;-77
2022/03/17 08:28:03;;;;;;;7.03;6.00;;;;;;;11.05;60.63;95652.09;5047303;28;20202;-77
2022/03/17 08:30:30;;;;;;;9.83;7.00;;;;;;;11.08;60.45;95658.75;5044137;28;20187;-75
2022/03/17 08:32:57;;;;;;;6.20;5.60;;;;;;;11.08;60.42;95658.75;5045444;28;20184;-76
2022/03/17 08:35:25;;;;;;;6.13;5.60;;;;;;;11.09;60.35;95656.06;5046620;28;20283;-77
2022/03/17 08:37:52;;;;;;;6.90;6.17;;;;;;;11.09;60.15;95653.50;5047257;28;20227;-75
2022/03/17 08:40:20;;;;;;;6.03;5.33;;;;;;;11.12;60.41;95653.28;5046517;28;20245;-76
2022/03/17 08:42:47;;;;;;;8.40;5.97;;;;;;;11.19;60.06;95656.19;5045122;28;20202;-76
2022/03/17 08:50:45;;;;;;;6.70;5.77;;;;;;;11.39;59.49;95645.22;5046097;28;20717;-75
2022/03/17 08:53:12;;;;;;;7.90;6.93;;;;;;;11.39;59.43;95650.31;5042438;28;20195;-78
2022/03/17 08:55:41;;;;;;;6.20;5.60;;;;;;;11.42;59.35;95656.97;5047156;28;20634;-77
2022/03/17 08:58:08;;;;;;;7.83;7.10;;;;;;;11.44;59.20;95662.78;5046526;28;20195;-78
2022/03/17 09:00:35;;;;;;;8.17;7.20;;;;;;;11.41;59.27;95663.84;5046498;28;20988;-76
2022/03/17 09:03:03;;;;;;;7.93;7.03;;;;;;;11.41;59.28;95663.03;5044568;28;20202;-78
2022/03/17 09:05:30;;;;;;;8.53;7.57;;;;;;;11.38;59.24;95674.31;5044261;28;20246;-76
2022/03/17 09:07:57;;;;;;;7.97;7.17;;;;;;;11.36;59.12;95672.81;5045877;28;20198;-76
2022/03/17 09:10:24;;;;;;;8.63;6.83;;;;;;;11.37;59.10;95666.75;5045276;28;20195;-75
2022/03/17 09:12:55;;;;;;;8.50;7.47;;;;;;;11.39;59.07;95681.06;5043705;28;20198;-76
2022/03/17 09:15:22;;;;;;;8.97;7.73;;;;;;;11.40;59.00;95680.16;5046184;28;20285;-76
2022/03/17 09:17:50;;;;;;;8.10;7.30;;;;;;;11.44;58.71;95681.56;5046664;28;20201;-78
2022/03/17 09:20:17;;;;;;;7.43;6.73;;;;;;;11.46;58.83;95682.22;5047033;28;20642;-76
2022/03/17 09:22:44;;;;;;;9.27;7.73;;;;;;;11.47;58.70;95688.97;5045018;28;20214;-75
2022/03/17 09:25:12;;;;;;;7.90;7.07;;;;;;;11.48;59.07;95693.16;5044090;28;20194;-79
2022/03/17 09:27:39;;;;;;;7.93;7.23;;;;;;;11.50;58.80;95698.19;5044660;28;20196;-78
2022/03/17 09:30:08;;;;;;;7.37;6.67;;;;;;;11.49;58.76;95702.50;5045665;28;20194;-78
2022/03/17 09:32:35;;;;;;;9.20;6.40;;;;;;;11.48;58.81;95705.97;5043260;28;20194;-77
2022/03/17 09:35:03;;;;;;;8.53;6.87;;;;;;;11.50;58.71;95704.13;5043388;28;20202;-76
2022/03/17 09:37:30;;;;;;;6.93;6.03;;;;;;;11.53;58.64;95703.88;5046158;28;20226;-76
2022/03/17 09:39:57;;;;;;;8.67;6.27;;;;;;;11.55;58.65;95711.44;5046657;28;20203;-79
2022/03/17 09:42:24;;;;;;;7.97;6.43;;;;;;;11.58;58.57;95720.66;5046230;28;20223;-79
2022/03/17 09:44:52;;;;;;;6.77;6.07;;;;;;;11.58;58.28;95715.53;5046256;28;20186;-80
2022/03/17 09:47:22;;;;;;;7.93;5.77;;;;;;;11.58;58.21;95721.47;5045974;28;20195;-77
2022/03/17 09:49:51;;;;;;;7.10;6.33;;;;;;;11.58;58.13;95721.47;5046645;28;20191;-80
2022/03/17 09:52:20;;;;;;;7.07;6.40;;;;;;;11.56;58.22;95721.56;5044364;28;20256;-79
2022/03/17 09:54:47;;;;;;;7.20;5.97;;;;;;;11.55;57.93;95719.94;5046222;28;20198;-78
2022/03/17 09:57:16;;;;;;;7.30;5.90;;;;;;;11.58;57.65;95720.66;5043284;28;20195;-78
2022/03/17 09:59:43;;;;;;;5.87;5.37;;;;;;;11.51;57.74;95710.84;5046405;28;20202;-77
2022/03/17 10:02:16;;;;;;;5.67;5.17;;;;;;;11.61;57.49;95716.06;5046184;28;20633;-77
2022/03/17 10:04:45;;;;;;;6.53;5.87;;;;;;;11.63;57.39;95716.78;5046631;28;20210;-77
2022/03/17 10:07:12;;;;;;;6.20;5.60;;;;;;;11.64;57.23;95723.53;5046148;28;20692;-76
2022/03/17 10:09:39;;;;;;;7.27;5.13;;;;;;;11.65;57.11;95725.16;5046210;28;20252;-78
2022/03/17 10:12:08;;;;;;;6.80;5.37;;;;;;;11.67;57.09;95730.19;5043743;28;20195;-77
2022/03/17 10:14:37;;;;;;;5.50;5.00;;;;;;;11.56;56.94;95711.31;5046193;28;20633;-76
2022/03/17 10:17:06;;;;;;;5.83;5.27;;;;;;;11.64;56.87;95720.16;5046191;28;20210;-77
2022/03/17 10:19:34;;;;;;;6.60;6.00;;;;;;;11.67;56.85;95731.00;5046031;28;20253;-78
2022/03/17 10:22:09;;;;;;;6.73;5.70;;;;;;;11.65;56.99;95727.72;5043421;28;20648;-78
2022/03/17 10:24:37;;;;;;;7.67;6.23;;;;;;;11.67;56.69;95730.19;5043386;28;20191;-78
2022/03/17 10:27:05;;;;;;;6.63;5.77;;;;;;;11.66;56.70;95726.00;5042568;28;20256;-80
2022/03/17 10:29:32;;;;;;;7.23;6.43;;;;;;;11.64;56.71;95725.28;5049253;28;20203;-81
2022/03/17 10:32:02;;;;;;;7.60;6.07;;;;;;;11.63;56.65;95728.78;5050062;28;20306;-79
2022/03/17 10:34:31;;;;;;;7.17;6.20;;;;;;;11.58;56.58;95718.09;5046926;28;20611;-78
2022/03/17 10:37:14;;;;;;;6.00;5.23;;;;;;;11.63;56.38;95727.03;5047494;28;20233;-76
2022/03/17 10:39:44;;;;;;;6.50;5.77;;;;;;;11.65;56.25;95732.03;5048892;28;20195;-78
2022/03/17 10:42:16;;;;;;;7.40;5.67;;;;;;;11.68;56.14;95721.56;5047374;28;20214;-81
2022/03/17 10:44:46;;;;;;;5.90;5.40;;;;;;;11.68;55.76;95724.94;5049436;28;20191;-75
2022/03/17 10:47:13;;;;;;;6.43;5.47;;;;;;;11.72;55.88;95726.31;5048808;28;20190;-79
2022/03/17 10:50:00;;;;;;;6.37;5.50;;;;;;;11.73;55.62;95722.81;5049251;28;20202;-80
2022/03/17 10:52:44;;;;;;;7.17;5.80;;;;;;;11.69;55.67;95724.00;5049126;28;20198;-75
2022/03/17 10:55:12;;;;;;;7.77;6.17;;;;;;;11.70;55.71;95724.81;5046819;28;20226;-74
2022/03/17 10:57:39;;;;;;;8.40;6.60;;;;;;;11.72;55.67;95730.63;5048916;28;20187;-77
2022/03/17 11:00:12;;;;;;;7.17;6.20;;;;;;;11.72;55.53;95722.94;5049571;28;20569;-73
2022/03/17 11:02:41;;;;;;;8.23;6.30;;;;;;;11.73;55.51;95724.56;5048929;28;20249;-77
2022/03/17 11:05:10;;;;;;;7.60;6.70;;;;;;;11.73;55.58;95725.38;5049548;28;20202;-76
2022/03/17 11:07:39;;;;;;;8.27;6.00;;;;;;;11.73;55.51;95722.00;5048654;28;20666;-75
2022/03/17 11:10:07;;;;;;;9.00;6.10;;;;;;;11.73;55.50;95722.81;5048383;28;20203;-77
2022/03/17 11:12:35;;;;;;;6.40;5.77;;;;;;;11.71;55.36;95719.56;5048950;28;20213;-77
2022/03/17 11:15:02;;;;;;;7.07;5.80;;;;;;;11.73;55.28;95714.31;5049077;28;20195;-79
2022/03/17 11:17:32;;;;;;;9.23;5.97;;;;;;;11.72;55.16;95717.81;5048768;28;20202;-78
2022/03/17 11:20:03;;;;;;;6.67;5.93;;;;;;;11.67;55.23;95709.69;5049102;28;20187;-79
2022/03/17 11:22:33;;;;;;;6.80;6.10;;;;;;;11.70;55.33;95717.97;5045068;28;20218;-77
2022/03/17 11:25:23;;;;;;;6.67;5.53;;;;;;;11.68;55.42;95722.38;5048952;28;20213;-76
2022/03/17 11:27:56;;;;;;;5.40;4.90;;;;;;;11.58;55.57;95713.78;5048655;28;20205;-77
2022/03/17 11:30:23;;;;;;;7.77;5.43;;;;;;;11.63;55.60;95721.09;5048654;28;20199;-75
2022/03/17 11:32:54;;;;;;;7.23;5.90;;;;;;;11.56;55.68;95708.75;5048491;28;20191;-75
2022/03/17 11:35:23;;;;;;;6.93;6.27;;;;;;;11.58;55.67;95718.91;5048785;28;20226;-76
2022/03/17 11:37:50;;;;;;;6.83;5.43;;;;;;;11.59;56.06;95715.41;5049007;28;20238;-77
2022/03/17 11:40:20;;;;;;;8.13;6.00;;;;;;;11.48;56.12;95697.47;5047977;28;20222;-74
2022/03/17 11:42:52;;;;;;;8.90;6.73;;;;;;;11.58;56.08;95703.53;5049112;28;20280;-75
2022/03/17 11:45:41;;;;;;;7.33;6.47;;;;;;;11.54;56.49;95708.06;5045724;28;20195;-77
2022/03/17 11:48:14;;;;;;;7.00;6.20;;;;;;;11.46;56.35;95695.03;5048256;28;20211;-73
2022/03/17 11:50:43;;;;;;;7.77;6.97;;;;;;;11.48;56.76;95705.16;5048293;28;20772;-72
2022/03/17 11:53:21;;;;;;;8.97;7.40;;;;;;;11.42;56.86;95703.88;5045269;28;20195;-74